Impacts TAF Board INFO
FOR SITUATIONAL AWARENESS. NOT TO BE USED FOR FLIGHT PLANNING PURPOSES.
IDs:

KDEN - Denver Intl, CO, US

Issued at 0535 UTC 17 Dec 2017
Updated at 0557 UTC 17 Dec 2017
Potential Impact None Slight Moderate High
Time<<18/06Z 18/07Z 18/08Z 18/09Z 18/10Z 18/11Z 18/12Z 18/13Z 18/14Z 18/15Z 18/16Z 18/17Z 18/18Z
Type PRVL PRVL PRVL PRVL PRVL PRVL
VIS >6 >6 >6 >6 >6 >6
CIG -- -- -- -- -- --
Cover SCT SCT SCT SCT SCT SCT
FltCat VFR VFR VFR VFR VFR VFR
WX -- -- -- -- -- --
WDir 210 210 210 210 210 210
WSpd 8 8 8 8 8 8
WGst -- -- -- -- -- --

Raw TAF
KDEN 170535Z 1706/1812 09009KT 5SM BR BKN004 OVC008
  TEMPO 1707/1711 1SM -FZDZSN BR OVC003
  FM171400 14007KT P6SM VCFG BKN010 OVC022
  FM171800 17007KT P6SM SCT025 BKN150
  FM180100 21008KT P6SM FEW120 SCT220


METAR Board
Radar Display
Forecast Discussion

FOR SITUATIONAL AWARENESS. NOT TO BE USED FOR FLIGHT PLANNING PURPOSES.